createdAt,value
2023-03-11T00:00:22.520Z,94413.79
2023-03-11T00:03:12.178Z,94412.08
2023-03-11T00:05:42.370Z,94407.20
2023-03-11T00:08:16.030Z,94398.77
2023-03-11T00:10:45.407Z,94394.39
2023-03-11T00:13:14.066Z,94390.35
2023-03-11T00:15:42.269Z,94387.35
2023-03-11T00:18:09.001Z,94383.69
2023-03-11T00:20:38.589Z,94385.09
2023-03-11T00:23:07.895Z,94379.33
2023-03-11T00:25:37.566Z,94374.23
2023-03-11T00:28:06.791Z,94371.79
2023-03-11T00:30:33.530Z,94373.27
2023-03-11T00:33:00.714Z,94368.34
2023-03-11T00:35:30.592Z,94372.42
2023-03-11T00:38:00.355Z,94371.02
2023-03-11T00:40:29.671Z,94367.12
2023-03-11T00:42:57.631Z,94362.52
2023-03-11T00:45:25.333Z,94361.64
2023-03-11T00:47:52.410Z,94364.66
2023-03-11T00:50:23.853Z,94372.35
2023-03-11T00:52:51.776Z,94370.52
2023-03-11T00:55:22.797Z,94367.45
2023-03-11T00:57:56.655Z,94363.92
2023-03-11T01:00:27.726Z,94359.27
2023-03-11T01:02:56.976Z,94355.02
2023-03-11T01:05:30.223Z,94354.21
2023-03-11T01:07:57.251Z,94347.01
2023-03-11T01:10:24.234Z,94338.24
2023-03-11T01:12:51.288Z,94333.27
2023-03-11T01:15:24.736Z,94329.76
2023-03-11T01:17:51.359Z,94324.82
2023-03-11T01:20:18.293Z,94317.70
2023-03-11T01:22:44.984Z,94312.05
2023-03-11T01:25:14.400Z,94308.58
2023-03-11T01:27:41.967Z,94306.19
2023-03-11T01:30:12.619Z,94303.69
2023-03-11T01:32:39.440Z,94295.21
2023-03-11T01:35:06.781Z,94289.28
2023-03-11T01:37:33.378Z,94276.41
2023-03-11T01:40:00.297Z,94273.67
2023-03-11T01:42:27.263Z,94281.83
2023-03-11T01:44:55.081Z,94283.35
2023-03-11T01:47:37.968Z,94278.98
2023-03-11T01:50:10.978Z,94284.37
2023-03-11T01:52:37.990Z,94279.13
2023-03-11T01:55:06.162Z,94273.20
2023-03-11T01:57:33.299Z,94270.41
2023-03-11T02:00:04.803Z,94264.24
2023-03-11T02:02:48.786Z,94266.50
2023-03-11T02:05:16.187Z,94268.46
2023-03-11T02:07:42.737Z,94262.21
2023-03-11T02:10:13.048Z,94256.19
2023-03-11T02:12:42.046Z,94250.83
2023-03-11T02:15:10.437Z,94256.02
2023-03-11T02:17:39.782Z,94258.65
2023-03-11T02:20:26.677Z,94245.67
2023-03-11T02:22:56.680Z,94236.94
2023-03-11T02:25:42.468Z,94234.05
2023-03-11T02:28:12.120Z,94229.61
2023-03-11T02:30:41.745Z,94231.31
2023-03-11T02:33:09.653Z,94229.05
2023-03-11T02:35:36.567Z,94234.73
2023-03-11T02:38:03.388Z,94239.77
2023-03-11T02:40:40.930Z,94240.21
2023-03-11T02:43:12.869Z,94244.03
2023-03-11T02:45:43.337Z,94246.52
2023-03-11T02:48:11.741Z,94244.79
2023-03-11T02:50:39.881Z,94242.33
2023-03-11T02:53:07.487Z,94233.59
2023-03-11T02:55:34.553Z,94232.98
2023-03-11T02:58:01.389Z,94231.76
2023-03-11T03:00:28.300Z,94227.46
2023-03-11T03:03:01.735Z,94220.41
2023-03-11T03:05:28.902Z,94217.04
2023-03-11T03:07:56.678Z,94216.42
2023-03-11T03:10:23.846Z,94219.52
2023-03-11T03:12:50.623Z,94213.06
2023-03-11T03:15:17.433Z,94212.30
2023-03-11T03:17:45.561Z,94211.30
2023-03-11T03:20:13.452Z,94209.13
2023-03-11T03:22:43.808Z,94203.70
2023-03-11T03:25:11.710Z,94202.69
2023-03-11T03:27:38.649Z,94198.78
2023-03-11T03:30:07.560Z,94197.55
2023-03-11T03:32:35.386Z,94197.85
2023-03-11T03:35:03.317Z,94190.64
2023-03-11T03:37:43.420Z,94180.09
2023-03-11T03:40:10.732Z,94169.59
2023-03-11T03:42:38.018Z,94165.43
2023-03-11T03:45:07.273Z,94162.04
2023-03-11T03:47:35.596Z,94159.61
2023-03-11T03:50:08.659Z,94165.90
2023-03-11T03:52:36.796Z,94164.45
2023-03-11T03:55:05.657Z,94162.88
2023-03-11T03:57:32.505Z,94165.56
2023-03-11T03:59:59.243Z,94159.52
2023-03-11T04:02:27.545Z,94153.20
2023-03-11T04:04:56.308Z,94143.88
2023-03-11T04:07:23.191Z,94138.34
2023-03-11T04:09:50.611Z,94130.09
2023-03-11T04:12:17.431Z,94134.95
2023-03-11T04:14:44.660Z,94133.95
2023-03-11T04:17:13.793Z,94134.06
2023-03-11T04:19:40.746Z,94135.73
2023-03-11T04:22:08.181Z,94141.14
2023-03-11T04:24:35.256Z,94143.56
2023-03-11T04:27:02.401Z,94143.70
2023-03-11T04:29:29.577Z,94148.15
2023-03-11T04:31:56.305Z,94152.54
2023-03-11T04:34:23.035Z,94150.63
2023-03-11T04:36:54.289Z,94152.23
2023-03-11T04:39:23.372Z,94154.35
2023-03-11T04:41:50.623Z,94149.58
2023-03-11T04:44:19.926Z,94153.28
2023-03-11T04:46:47.073Z,94157.33
2023-03-11T04:49:15.036Z,94162.66
2023-03-11T04:51:42.389Z,94166.02
2023-03-11T04:54:09.789Z,94169.56
2023-03-11T04:56:36.720Z,94171.43
2023-03-11T04:59:03.654Z,94172.88
2023-03-11T05:01:30.706Z,94183.59
2023-03-11T05:03:58.687Z,94204.27
2023-03-11T05:06:25.503Z,94210.33
2023-03-11T05:08:52.100Z,94226.77
2023-03-11T05:11:18.879Z,94235.54
2023-03-11T05:13:46.423Z,94239.69
2023-03-11T05:16:13.333Z,94244.98
2023-03-11T05:18:40.202Z,94247.16
2023-03-11T05:21:06.932Z,94254.59
2023-03-11T05:23:34.015Z,94257.75
2023-03-11T05:26:01.080Z,94257.94
2023-03-11T05:28:28.437Z,94260.73
2023-03-11T05:30:55.420Z,94266.82
2023-03-11T05:33:22.785Z,94273.61
2023-03-11T05:35:51.473Z,94276.33
2023-03-11T05:38:18.495Z,94281.77
2023-03-11T05:40:45.298Z,94284.14
2023-03-11T05:43:12.218Z,94292.23
2023-03-11T05:45:40.519Z,94297.02
2023-03-11T05:48:07.375Z,94296.84
2023-03-11T05:50:34.446Z,94294.86
2023-03-11T05:53:01.197Z,94296.63
2023-03-11T05:55:29.527Z,94302.18
2023-03-11T05:57:56.438Z,94302.73
2023-03-11T06:00:23.381Z,94297.02
2023-03-11T06:02:50.483Z,94296.64
2023-03-11T06:05:18.478Z,94299.19
2023-03-11T06:07:46.284Z,94304.79
2023-03-11T06:10:13.112Z,94301.52
2023-03-11T06:12:40.510Z,94298.80
2023-03-11T06:15:33.872Z,94304.86
2023-03-11T06:18:00.651Z,94300.28
2023-03-11T06:20:28.172Z,94297.45
2023-03-11T06:22:55.135Z,94298.16
2023-03-11T06:25:23.220Z,94298.95
2023-03-11T06:27:52.688Z,94294.76
2023-03-11T06:30:20.356Z,94293.48
2023-03-11T06:33:08.601Z,94291.81
2023-03-11T06:35:35.497Z,94296.16
2023-03-11T06:38:02.287Z,94291.92
2023-03-11T06:40:29.026Z,94289.73
2023-03-11T06:42:55.968Z,94286.00
2023-03-11T06:45:23.120Z,94288.67
2023-03-11T06:47:50.481Z,94288.91
2023-03-11T06:50:17.383Z,94289.73
2023-03-11T06:52:44.149Z,94286.40
2023-03-11T06:55:10.898Z,94286.09
2023-03-11T06:57:37.471Z,94288.92
2023-03-11T07:00:09.708Z,94286.94
2023-03-11T07:02:36.359Z,94289.48
2023-03-11T07:05:03.985Z,94293.84
2023-03-11T07:07:31.261Z,94290.91
2023-03-11T07:09:59.630Z,94289.77
2023-03-11T07:12:26.368Z,94290.55
2023-03-11T07:14:58.448Z,94289.71
2023-03-11T07:17:26.412Z,94290.29
2023-03-11T07:19:54.009Z,94293.33
2023-03-11T07:22:20.779Z,94290.09
2023-03-11T07:24:48.736Z,94297.54
2023-03-11T07:27:15.730Z,94292.50
2023-03-11T07:29:42.705Z,94289.26
2023-03-11T07:32:09.948Z,94294.08
2023-03-11T07:34:36.555Z,94298.35
2023-03-11T07:37:03.749Z,94299.02
2023-03-11T07:39:30.399Z,94301.80
2023-03-11T07:41:57.048Z,94298.41
2023-03-11T07:44:29.327Z,94300.79
2023-03-11T07:46:55.974Z,94302.40
2023-03-11T07:49:22.670Z,94300.58
2023-03-11T07:51:49.324Z,94295.92
2023-03-11T07:54:16.031Z,94295.16
2023-03-11T07:56:42.611Z,94295.35
2023-03-11T07:59:09.470Z,94289.77
2023-03-11T08:01:36.227Z,94281.50
2023-03-11T08:04:05.488Z,94271.05
2023-03-11T08:06:34.468Z,94261.21
2023-03-11T08:09:04.639Z,94255.64
2023-03-11T08:11:32.055Z,94257.65
2023-03-11T08:13:59.289Z,94253.19
2023-03-11T08:16:26.903Z,94259.44
2023-03-11T08:18:54.036Z,94259.88
2023-03-11T08:21:26.057Z,94263.91
2023-03-11T08:23:57.046Z,94274.39
2023-03-11T08:26:24.295Z,94275.80
2023-03-11T08:28:51.001Z,94276.95
2023-03-11T08:31:26.639Z,94282.89
2023-03-11T08:33:58.080Z,94287.39
2023-03-11T08:36:24.775Z,94293.53
2023-03-11T08:38:51.714Z,94295.02
2023-03-11T08:41:18.832Z,94299.70
2023-03-11T08:43:45.804Z,94301.16
2023-03-11T08:46:36.214Z,94311.21
2023-03-11T08:49:03.868Z,94315.38
2023-03-11T08:51:33.110Z,94310.09
2023-03-11T08:54:00.827Z,94323.30
2023-03-11T08:56:27.990Z,94329.11
2023-03-11T08:58:54.934Z,94330.66
2023-03-11T09:01:23.016Z,94335.21
2023-03-11T09:03:49.954Z,94337.39
2023-03-11T09:06:17.553Z,94339.78
2023-03-11T09:08:45.514Z,94341.66
2023-03-11T09:11:13.259Z,94339.19
2023-03-11T09:13:41.663Z,94341.09
2023-03-11T09:16:16.943Z,94339.88
2023-03-11T09:18:45.523Z,94350.09
2023-03-11T09:21:12.525Z,94355.58
2023-03-11T09:23:41.574Z,94367.59
2023-03-11T09:26:09.539Z,94362.61
2023-03-11T09:28:36.142Z,94360.84
2023-03-11T09:31:02.970Z,94358.53
2023-03-11T09:33:29.781Z,94367.96
2023-03-11T09:35:58.361Z,94369.91
2023-03-11T09:38:25.065Z,94362.60
2023-03-11T09:40:57.435Z,94363.12
2023-03-11T09:43:49.973Z,94367.96
2023-03-11T09:46:31.762Z,94367.42
2023-03-11T09:49:27.863Z,94365.58
2023-03-11T09:52:10.391Z,94364.38
2023-03-11T09:54:42.244Z,94369.55
2023-03-11T09:57:16.128Z,94367.98
2023-03-11T09:59:44.550Z,94370.11
2023-03-11T10:02:18.299Z,94372.89
2023-03-11T10:04:56.714Z,94371.23
2023-03-11T10:07:32.106Z,94366.63
2023-03-11T10:09:59.762Z,94372.52
2023-03-11T10:13:10.319Z,94379.88
2023-03-11T10:16:03.302Z,94381.15
2023-03-11T10:18:49.225Z,94385.44
2023-03-11T10:21:38.023Z,94386.44
2023-03-11T10:24:17.159Z,94391.34
2023-03-11T10:26:57.241Z,94399.52
2023-03-11T10:29:30.211Z,94403.08
2023-03-11T10:32:16.705Z,94412.15
2023-03-11T10:34:51.450Z,94408.73
2023-03-11T10:37:46.540Z,94401.19
2023-03-11T10:40:27.621Z,94402.50
2023-03-11T10:42:57.991Z,94403.42
2023-03-11T10:45:26.703Z,94414.14
2023-03-11T10:48:02.859Z,94414.27
2023-03-11T10:50:36.332Z,94417.04
2023-03-11T10:53:09.279Z,94410.80
2023-03-11T10:55:45.902Z,94418.90
2023-03-11T10:58:17.700Z,94420.67
2023-03-11T11:00:44.770Z,94416.30
2023-03-11T11:03:21.333Z,94416.91
2023-03-11T11:05:59.027Z,94405.39
2023-03-11T11:08:26.059Z,94395.92
2023-03-11T11:11:01.313Z,94393.44
2023-03-11T11:13:31.898Z,94396.48
2023-03-11T11:16:17.129Z,94398.25
2023-03-11T11:18:49.354Z,94401.27
2023-03-11T11:21:35.486Z,94411.60
2023-03-11T11:24:23.153Z,94408.65
2023-03-11T11:27:20.167Z,94416.08
2023-03-11T11:30:01.713Z,94421.42
2023-03-11T11:32:28.596Z,94419.91
2023-03-11T11:35:01.482Z,94423.33
2023-03-11T11:37:37.250Z,94432.78
2023-03-11T11:40:31.616Z,94437.58
2023-03-11T11:43:01.126Z,94438.55
2023-03-11T11:45:36.381Z,94442.59
2023-03-11T11:48:26.878Z,94441.55
2023-03-11T11:50:58.940Z,94451.60
2023-03-11T11:53:41.540Z,94448.48
2023-03-11T11:56:08.571Z,94451.09
2023-03-11T11:58:35.849Z,94451.23
2023-03-11T12:01:13.553Z,94456.24
2023-03-11T12:03:59.673Z,94465.17
2023-03-11T12:06:45.027Z,94464.38
2023-03-11T12:09:31.908Z,94459.52
2023-03-11T12:12:08.114Z,94430.70
2023-03-11T12:14:54.850Z,94432.23
2023-03-11T12:17:24.194Z,94431.75
2023-03-11T12:20:03.145Z,94434.04
2023-03-11T12:22:45.072Z,94427.66
2023-03-11T12:25:29.550Z,94420.32
2023-03-11T12:28:12.658Z,94414.10
2023-03-11T12:30:46.093Z,94405.88
2023-03-11T12:33:24.434Z,94401.38
2023-03-11T12:35:57.463Z,94391.34
2023-03-11T12:38:26.804Z,94396.17
2023-03-11T12:41:04.140Z,94394.58
2023-03-11T12:43:33.060Z,94402.21
2023-03-11T12:46:04.449Z,94405.34
2023-03-11T12:48:33.015Z,94408.74
2023-03-11T12:51:00.372Z,94411.38
2023-03-11T12:53:41.416Z,94418.30
2023-03-11T12:56:22.890Z,94445.81
2023-03-11T12:58:52.645Z,94457.31
2023-03-11T13:01:44.812Z,94459.69
2023-03-11T13:04:19.818Z,94462.60
2023-03-11T13:07:09.497Z,94480.10
2023-03-11T13:09:36.436Z,94485.33
2023-03-11T13:12:03.290Z,94482.16
2023-03-11T13:14:32.917Z,94500.77
2023-03-11T13:17:24.015Z,94508.30
2023-03-11T13:19:53.486Z,94502.71
2023-03-11T13:22:41.566Z,94503.84
2023-03-11T13:25:27.133Z,94508.50
2023-03-11T13:28:01.646Z,94521.73
2023-03-11T13:30:34.538Z,94525.76
2023-03-11T13:33:10.087Z,94534.71
2023-03-11T13:36:14.203Z,94525.27
2023-03-11T13:39:07.801Z,94530.05
2023-03-11T13:41:36.668Z,94522.60
2023-03-11T13:44:18.757Z,94533.17
2023-03-11T13:46:49.777Z,94536.08
2023-03-11T13:49:38.158Z,94546.78
2023-03-11T13:52:12.159Z,94557.50
2023-03-11T13:54:44.835Z,94560.34
2023-03-11T13:57:36.160Z,94564.20
2023-03-11T14:00:17.144Z,94581.48
2023-03-11T14:02:50.559Z,94594.29
2023-03-11T14:05:22.904Z,94594.14
2023-03-11T14:07:50.055Z,94602.21
2023-03-11T14:10:16.694Z,94608.42
2023-03-11T14:12:44.055Z,94631.95
2023-03-11T14:15:23.580Z,94630.85
2023-03-11T14:17:52.176Z,94624.73
2023-03-11T14:20:24.620Z,94633.65
2023-03-11T14:22:54.304Z,94633.94
2023-03-11T14:25:30.402Z,94633.94
2023-03-11T14:28:00.942Z,94643.04
2023-03-11T14:30:33.366Z,94638.42
2023-03-11T14:33:21.245Z,94635.89
2023-03-11T14:35:59.960Z,94647.64
2023-03-11T14:38:29.815Z,94653.13
2023-03-11T14:40:59.860Z,94647.27
2023-03-11T14:43:34.471Z,94643.25
2023-03-11T14:46:03.969Z,94648.54
2023-03-11T14:48:41.049Z,94661.63
2023-03-11T14:51:16.564Z,94658.59
2023-03-11T14:53:49.643Z,94659.39
2023-03-11T14:56:21.236Z,94658.59
2023-03-11T14:59:08.022Z,94662.00
2023-03-11T15:01:41.340Z,94667.37
2023-03-11T15:04:33.848Z,94668.16
2023-03-11T15:07:03.595Z,94667.86
2023-03-11T15:09:31.835Z,94665.58
2023-03-11T15:12:03.611Z,94673.67
2023-03-11T15:14:31.900Z,94669.64
2023-03-11T15:17:43.888Z,94667.14
2023-03-11T15:20:33.596Z,94668.94
2023-03-11T15:23:02.962Z,94672.92
2023-03-11T15:25:33.592Z,94669.58
2023-03-11T15:28:21.637Z,94669.97
2023-03-11T15:30:48.298Z,94675.48
2023-03-11T15:33:32.599Z,94681.33
2023-03-11T15:35:59.388Z,94695.47
2023-03-11T15:38:27.901Z,94712.64
2023-03-11T15:40:59.856Z,94724.53
2023-03-11T15:43:26.550Z,94733.09
2023-03-11T15:45:55.611Z,94743.18
2023-03-11T15:48:23.122Z,94753.05
2023-03-11T15:50:54.465Z,94758.34
2023-03-11T15:53:23.948Z,94763.40
2023-03-11T15:55:52.837Z,94764.01
2023-03-11T15:58:20.943Z,94768.06
2023-03-11T16:00:53.465Z,94766.05
2023-03-11T16:03:20.448Z,94775.26
2023-03-11T16:05:47.365Z,94784.61
2023-03-11T16:08:14.745Z,94790.50
2023-03-11T16:10:41.953Z,94794.38
2023-03-11T16:13:12.842Z,94792.95
2023-03-11T16:15:41.752Z,94796.50
2023-03-11T16:18:09.936Z,94799.71
2023-03-11T16:20:41.451Z,94803.82
2023-03-11T16:23:19.817Z,94807.52
2023-03-11T16:25:47.776Z,94811.73
2023-03-11T16:28:16.122Z,94820.63
2023-03-11T16:30:43.574Z,94822.86
2023-03-11T16:33:10.402Z,94825.26
2023-03-11T16:35:37.554Z,94831.23
2023-03-11T16:38:06.149Z,94837.64
2023-03-11T16:40:32.961Z,94848.85
2023-03-11T16:43:05.154Z,94851.28
2023-03-11T16:45:32.454Z,94856.52
2023-03-11T16:47:59.294Z,94867.98
2023-03-11T16:50:26.502Z,94879.69
2023-03-11T16:52:55.852Z,94876.39
2023-03-11T16:55:24.030Z,94880.28
2023-03-11T16:57:51.159Z,94885.41
2023-03-11T17:00:18.129Z,94894.59
2023-03-11T17:02:44.942Z,94895.52
2023-03-11T17:05:11.813Z,94903.83
2023-03-11T17:07:40.024Z,94910.29
2023-03-11T17:10:09.299Z,94914.96
2023-03-11T17:12:36.209Z,94916.34
2023-03-11T17:15:05.510Z,94919.15
2023-03-11T17:17:32.336Z,94927.23
2023-03-11T17:19:59.086Z,94929.50
2023-03-11T17:22:25.860Z,94937.08
2023-03-11T17:24:52.859Z,94939.86
2023-03-11T17:27:19.498Z,94944.02
2023-03-11T17:29:46.157Z,94945.44
2023-03-11T17:32:17.225Z,94952.61
2023-03-11T17:34:44.328Z,94954.88
2023-03-11T17:37:11.084Z,94959.90
2023-03-11T17:39:37.910Z,94958.48
2023-03-11T17:42:05.400Z,94959.77
2023-03-11T17:44:48.337Z,94964.77
2023-03-11T17:47:19.122Z,94965.98
2023-03-11T17:49:45.967Z,94967.95
2023-03-11T17:52:12.729Z,94965.73
2023-03-11T17:54:39.417Z,94965.65
2023-03-11T17:57:07.102Z,94963.52
2023-03-11T17:59:34.563Z,94962.65
2023-03-11T18:02:01.804Z,94965.77
2023-03-11T18:04:28.394Z,94971.48
2023-03-11T18:06:55.629Z,94976.11
2023-03-11T18:09:22.220Z,94977.36
2023-03-11T18:11:48.999Z,94975.27
2023-03-11T18:14:15.940Z,94974.98
2023-03-11T18:16:44.111Z,94972.61
2023-03-11T18:19:10.864Z,94977.48
2023-03-11T18:21:37.584Z,94982.46
2023-03-11T18:24:04.647Z,94987.52
2023-03-11T18:26:31.411Z,94985.17
2023-03-11T18:28:59.377Z,94987.63
2023-03-11T18:31:28.718Z,94988.52
2023-03-11T18:33:59.057Z,94988.77
2023-03-11T18:36:31.454Z,94991.88
2023-03-11T18:38:59.695Z,94995.98
2023-03-11T18:41:30.268Z,94997.89
2023-03-11T18:43:57.208Z,95001.48
2023-03-11T18:46:25.858Z,95008.08
2023-03-11T18:48:53.342Z,95007.79
2023-03-11T18:51:19.970Z,95019.58
2023-03-11T18:53:48.255Z,95022.80
2023-03-11T18:56:16.530Z,95028.77
2023-03-11T18:58:43.872Z,95034.38
2023-03-11T19:01:16.918Z,95045.64
2023-03-11T19:03:48.501Z,95049.95
2023-03-11T19:06:16.109Z,95056.67
2023-03-11T19:08:44.074Z,95064.60
2023-03-11T19:11:15.196Z,95070.21
2023-03-11T19:13:46.913Z,95070.61
2023-03-11T19:16:20.318Z,95082.04
2023-03-11T19:18:47.106Z,95083.19
2023-03-11T19:21:15.373Z,95081.60
2023-03-11T19:23:42.437Z,95086.06
2023-03-11T19:26:09.796Z,95090.30
2023-03-11T19:28:36.824Z,95087.39
2023-03-11T19:31:04.443Z,95093.81
2023-03-11T19:33:32.011Z,95100.55
2023-03-11T19:36:01.258Z,95105.45
2023-03-11T19:38:28.900Z,95108.98
2023-03-11T19:41:07.971Z,95115.67
2023-03-11T19:43:35.779Z,95124.05
2023-03-11T19:46:04.234Z,95130.95
2023-03-11T19:48:31.711Z,95136.01
2023-03-11T19:50:59.020Z,95139.06
2023-03-11T19:53:26.485Z,95148.67
2023-03-11T19:55:55.312Z,95153.10
2023-03-11T19:58:23.303Z,95156.46
2023-03-11T20:00:50.519Z,95163.29
2023-03-11T20:03:18.608Z,95162.86
2023-03-11T20:05:46.416Z,95163.76
2023-03-11T20:08:16.429Z,95169.95
2023-03-11T20:10:46.299Z,95170.23
2023-03-11T20:13:14.983Z,95174.84
2023-03-11T20:15:41.776Z,95183.80
2023-03-11T20:18:08.630Z,95188.34
2023-03-11T20:20:38.539Z,95191.73
2023-03-11T20:23:05.452Z,95200.05
2023-03-11T20:25:32.423Z,95201.02
2023-03-11T20:28:00.877Z,95200.17
2023-03-11T20:30:28.592Z,95205.15
2023-03-11T20:32:55.539Z,95207.00
2023-03-11T20:35:22.804Z,95221.50
2023-03-11T20:37:49.685Z,95222.14
2023-03-11T20:40:18.310Z,95226.46
2023-03-11T20:42:46.450Z,95234.80
2023-03-11T20:45:21.043Z,95235.29
2023-03-11T20:47:49.225Z,95233.58
2023-03-11T20:50:16.027Z,95233.88
2023-03-11T20:52:42.771Z,95236.95
2023-03-11T20:55:10.336Z,95238.60
2023-03-11T20:57:38.939Z,95245.58
2023-03-11T21:00:10.625Z,95243.42
2023-03-11T21:02:39.255Z,95250.89
2023-03-11T21:05:08.099Z,95256.14
2023-03-11T21:07:35.781Z,95267.36
2023-03-11T21:10:08.310Z,95279.19
2023-03-11T21:12:34.922Z,95280.98
2023-03-11T21:15:02.170Z,95285.09
2023-03-11T21:17:28.965Z,95287.61
2023-03-11T21:19:56.684Z,95284.82
2023-03-11T21:22:23.601Z,95283.30
2023-03-11T21:24:54.454Z,95289.41
2023-03-11T21:27:25.722Z,95294.63
2023-03-11T21:29:57.316Z,95303.50
2023-03-11T21:32:25.492Z,95304.38
2023-03-11T21:34:59.773Z,95303.36
2023-03-11T21:37:27.988Z,95305.60
2023-03-11T21:39:55.166Z,95311.81
2023-03-11T21:42:21.909Z,95315.02
2023-03-11T21:44:50.671Z,95319.52
2023-03-11T21:47:17.374Z,95320.31
2023-03-11T21:49:44.260Z,95326.55
2023-03-11T21:52:11.041Z,95330.02
2023-03-11T21:54:37.827Z,95337.21
2023-03-11T21:57:04.539Z,95342.95
2023-03-11T21:59:31.379Z,95344.56
2023-03-11T22:02:02.130Z,95350.92
2023-03-11T22:04:31.032Z,95356.27
2023-03-11T22:06:58.237Z,95366.29
2023-03-11T22:09:25.623Z,95373.27
2023-03-11T22:11:52.750Z,95373.77
2023-03-11T22:14:19.800Z,95374.65
2023-03-11T22:16:46.731Z,95373.52
2023-03-11T22:19:13.758Z,95379.06
2023-03-11T22:21:40.469Z,95381.20
2023-03-11T22:24:07.557Z,95388.23
2023-03-11T22:26:34.266Z,95393.85
2023-03-11T22:29:03.748Z,95398.02
2023-03-11T22:31:30.927Z,95391.47
2023-03-11T22:33:57.760Z,95393.06
2023-03-11T22:36:24.414Z,95399.33
2023-03-11T22:38:51.144Z,95406.00
2023-03-11T22:41:19.715Z,95408.35
2023-03-11T22:43:46.973Z,95408.34
2023-03-11T22:46:14.256Z,95409.80
2023-03-11T22:48:41.239Z,95403.85
2023-03-11T22:51:08.242Z,95405.27
2023-03-11T22:53:34.982Z,95399.91
2023-03-11T22:56:07.454Z,95405.38
2023-03-11T22:58:34.934Z,95405.11
2023-03-11T23:01:03.393Z,95405.39
2023-03-11T23:03:32.827Z,95411.74
2023-03-11T23:06:00.548Z,95410.65
2023-03-11T23:08:27.385Z,95411.68
2023-03-11T23:10:54.249Z,95412.94
2023-03-11T23:13:20.856Z,95412.67
2023-03-11T23:15:47.995Z,95416.28
2023-03-11T23:18:15.538Z,95412.97
2023-03-11T23:20:43.012Z,95416.00
2023-03-11T23:23:11.114Z,95417.19
2023-03-11T23:25:39.293Z,95414.70
2023-03-11T23:28:06.828Z,95421.02
2023-03-11T23:30:34.701Z,95426.74
2023-03-11T23:33:02.351Z,95425.52
2023-03-11T23:35:29.827Z,95431.30
2023-03-11T23:37:56.737Z,95434.48
2023-03-11T23:40:23.510Z,95441.36
2023-03-11T23:42:50.272Z,95447.19
2023-03-11T23:45:18.429Z,95448.21
2023-03-11T23:47:45.049Z,95453.46
2023-03-11T23:50:11.915Z,95458.65
2023-03-11T23:52:38.708Z,95461.60
2023-03-11T23:55:06.379Z,95464.58
2023-03-11T23:57:36.627Z,95471.13
